createdAt,value
2022-11-01T00:02:07.435Z,100415.97
2022-11-01T00:04:34.156Z,100403.25
2022-11-01T00:07:00.941Z,100402.44
2022-11-01T00:09:27.625Z,100407.88
2022-11-01T00:11:54.344Z,100407.03
2022-11-01T00:14:21.113Z,100399.72
2022-11-01T00:16:48.687Z,100404.03
2022-11-01T00:19:15.460Z,100403.00
2022-11-01T00:21:42.092Z,100406.50
2022-11-01T00:24:08.906Z,100404.03
2022-11-01T00:26:35.668Z,100398.66
2022-11-01T00:29:02.528Z,100403.81
2022-11-01T00:31:29.685Z,100407.88
2022-11-01T00:33:56.636Z,100401.34
2022-11-01T00:36:23.363Z,100410.56
2022-11-01T00:38:51.367Z,100405.13
2022-11-01T00:41:19.443Z,100413.00
2022-11-01T00:43:47.063Z,100403.81
2022-11-01T00:46:14.100Z,100400.81
2022-11-01T00:48:40.849Z,100398.38
2022-11-01T00:51:08.053Z,100388.63
2022-11-01T00:53:37.073Z,100389.16
2022-11-01T00:56:08.511Z,100380.22
2022-11-01T00:58:35.559Z,100387.78
2022-11-01T01:01:04.296Z,100371.81
2022-11-01T01:03:35.208Z,100379.69
2022-11-01T01:06:01.965Z,100372.38
2022-11-01T01:08:29.286Z,100364.78
2022-11-01T01:10:55.899Z,100363.97
2022-11-01T01:13:23.192Z,100374.56
2022-11-01T01:15:49.829Z,100371.31
2022-11-01T01:18:16.660Z,100359.91
2022-11-01T01:20:43.612Z,100358.06
2022-11-01T01:23:10.275Z,100362.34
2022-11-01T01:25:40.264Z,100369.94
2022-11-01T01:28:07.177Z,100370.19
2022-11-01T01:30:33.813Z,100369.66
2022-11-01T01:33:00.468Z,100371.28
2022-11-01T01:35:27.134Z,100372.09
2022-11-01T01:37:53.731Z,100372.91
2022-11-01T01:40:20.309Z,100368.84
2022-11-01T01:42:47.403Z,100355.84
2022-11-01T01:45:31.123Z,100364.53
2022-11-01T01:48:12.392Z,100366.94
2022-11-01T01:50:54.217Z,100371.81
2022-11-01T01:53:28.399Z,100369.38
2022-11-01T01:56:07.278Z,100367.22
2022-11-01T01:58:48.504Z,100367.53
2022-11-01T02:01:15.269Z,100364.78
2022-11-01T02:03:43.133Z,100352.63
2022-11-01T02:09:00.662Z,100348.31
2022-11-01T02:11:27.615Z,100352.34
2022-11-01T02:13:55.899Z,100357.72
2022-11-01T02:16:47.733Z,100359.38
2022-11-01T02:19:26.793Z,100361.81
2022-11-01T02:21:57.178Z,100365.34
2022-11-01T02:24:50.496Z,100371.00
2022-11-01T02:27:35.400Z,100366.16
2022-11-01T02:30:11.568Z,100366.13
2022-11-01T02:32:47.420Z,100372.94
2022-11-01T02:35:17.120Z,100377.25
2022-11-01T02:38:01.955Z,100389.41
2022-11-01T02:40:49.291Z,100385.91
2022-11-01T02:43:29.416Z,100399.72
2022-11-01T02:45:57.577Z,100421.38
2022-11-01T02:48:25.494Z,100425.72
2022-11-01T02:50:57.212Z,100437.91
2022-11-01T02:53:24.377Z,100428.97
2022-11-01T02:55:53.067Z,100426.81
2022-11-01T02:58:23.646Z,100432.22
2022-11-01T03:00:50.430Z,100436.81
2022-11-01T03:03:29.200Z,100438.97
2022-11-01T03:06:05.028Z,100444.66
2022-11-01T03:08:33.637Z,100444.38
2022-11-01T03:11:16.790Z,100447.91
2022-11-01T03:13:59.056Z,100453.84
2022-11-01T03:16:29.528Z,100453.03
2022-11-01T03:19:40.513Z,100427.09
2022-11-01T03:22:15.786Z,100422.72
2022-11-01T03:24:52.164Z,100427.59
2022-11-01T03:27:34.828Z,100433.03
2022-11-01T03:30:06.330Z,100439.50
2022-11-01T03:32:40.815Z,100436.00
2022-11-01T03:35:10.463Z,100439.25
2022-11-01T03:37:41.004Z,100429.75
2022-11-01T03:40:11.776Z,100434.38
2022-11-01T03:42:41.240Z,100443.03
2022-11-01T03:45:12.682Z,100438.16
2022-11-01T03:47:40.600Z,100436.00
2022-11-01T03:50:25.961Z,100433.84
2022-11-01T03:52:53.009Z,100435.75
2022-11-01T03:55:20.960Z,100425.72
2022-11-01T03:57:58.763Z,100424.91
2022-11-01T04:00:31.589Z,100431.69
2022-11-01T04:02:59.306Z,100446.28
2022-11-01T04:05:28.442Z,100442.50
2022-11-01T04:07:55.717Z,100448.47
2022-11-01T04:10:23.861Z,100450.63
2022-11-01T04:12:51.388Z,100456.03
2022-11-01T04:15:38.389Z,100464.16
2022-11-01T04:18:31.268Z,100458.16
2022-11-01T04:20:58.628Z,100466.31
2022-11-01T04:23:25.223Z,100466.56
2022-11-01T04:25:51.961Z,100476.88
2022-11-01T04:28:18.557Z,100483.09
2022-11-01T04:30:45.197Z,100487.97
2022-11-01T04:33:11.825Z,100492.03
2022-11-01T04:35:38.981Z,100494.75
2022-11-01T04:38:06.441Z,100489.84
2022-11-01T04:40:34.316Z,100496.34
2022-11-01T04:43:01.421Z,100484.69
2022-11-01T04:45:28.205Z,100461.44
2022-11-01T04:48:02.528Z,100449.53
2022-11-01T04:50:29.585Z,100445.19
2022-11-01T04:52:58.282Z,100448.47
2022-11-01T04:55:25.683Z,100462.28
2022-11-01T04:57:52.337Z,100454.97
2022-11-01T05:00:19.068Z,100451.16
2022-11-01T05:02:45.742Z,100456.56
2022-11-01T05:05:13.545Z,100478.22
2022-11-01T05:07:40.184Z,100496.34
2022-11-01T05:10:07.998Z,100499.81
2022-11-01T05:12:35.037Z,100499.31
2022-11-01T05:15:01.688Z,100500.97
2022-11-01T05:17:30.012Z,100494.41
2022-11-01T05:19:56.629Z,100502.28
2022-11-01T05:22:23.247Z,100513.09
2022-11-01T05:24:49.805Z,100522.88
2022-11-01T05:27:16.466Z,100521.50
2022-11-01T05:29:43.064Z,100513.13
2022-11-01T05:32:09.861Z,100529.91
2022-11-01T05:34:36.522Z,100532.88
2022-11-01T05:37:03.109Z,100536.38
2022-11-01T05:39:29.764Z,100536.66
2022-11-01T05:41:59.840Z,100543.66
2022-11-01T05:44:29.592Z,100549.91
2022-11-01T05:46:56.327Z,100548.59
2022-11-01T05:49:23.016Z,100551.84
2022-11-01T05:51:49.645Z,100557.53
2022-11-01T05:54:16.280Z,100558.84
2022-11-01T05:56:42.967Z,100571.88
2022-11-01T05:59:09.581Z,100566.97
2022-11-01T06:01:36.230Z,100569.13
2022-11-01T06:04:03.369Z,100582.13
2022-11-01T06:06:30.519Z,100587.25
2022-11-01T06:08:58.028Z,100588.06
2022-11-01T06:11:26.634Z,100594.56
2022-11-01T06:13:55.238Z,100593.22
2022-11-01T06:16:22.658Z,100591.53
2022-11-01T06:18:49.753Z,100594.56
2022-11-01T06:21:16.569Z,100592.94
2022-11-01T06:23:47.946Z,100587.28
2022-11-01T06:26:14.622Z,100597.03
2022-11-01T06:28:41.216Z,100595.66
2022-11-01T06:31:07.834Z,100608.91
2022-11-01T06:33:34.592Z,100618.38
2022-11-01T06:36:01.913Z,100618.88
2022-11-01T06:38:28.762Z,100605.38
2022-11-01T06:40:55.604Z,100622.16
2022-11-01T06:43:22.395Z,100620.00
2022-11-01T06:45:49.106Z,100614.06
2022-11-01T06:48:15.731Z,100629.47
2022-11-01T06:50:42.316Z,100621.31
2022-11-01T06:53:09.241Z,100618.38
2022-11-01T06:55:36.036Z,100625.69
2022-11-01T06:58:03.744Z,100633.53
2022-11-01T07:00:31.580Z,100634.13
2022-11-01T07:03:00.250Z,100641.94
2022-11-01T07:05:30.379Z,100640.03
2022-11-01T07:08:02.348Z,100652.00
2022-11-01T07:10:29.608Z,100646.81
2022-11-01T07:13:03.292Z,100660.09
2022-11-01T07:15:30.970Z,100671.97
2022-11-01T07:17:59.028Z,100668.78
2022-11-01T07:20:27.335Z,100665.53
2022-11-01T07:23:05.681Z,100673.06
2022-11-01T07:25:33.269Z,100672.56
2022-11-01T07:27:59.984Z,100679.56
2022-11-01T07:30:27.616Z,100668.78
2022-11-01T07:32:59.534Z,100672.28
2022-11-01T07:35:27.283Z,100671.75
2022-11-01T07:37:57.606Z,100688.00
2022-11-01T07:40:27.593Z,100690.13
2022-11-01T07:43:00.499Z,100703.47
2022-11-01T07:45:29.342Z,100692.94
2022-11-01T07:48:03.335Z,100694.81
2022-11-01T07:50:31.586Z,100693.16
2022-11-01T07:53:03.048Z,100701.81
2022-11-01T07:55:30.608Z,100706.44
2022-11-01T07:57:57.711Z,100686.41
2022-11-01T08:00:28.025Z,100691.03
2022-11-01T08:03:14.464Z,100682.63
2022-11-01T08:05:44.205Z,100690.44
2022-11-01T08:08:11.566Z,100683.44
2022-11-01T08:10:39.010Z,100682.09
2022-11-01T08:13:07.695Z,100685.09
2022-11-01T08:15:35.079Z,100692.94
2022-11-01T08:18:02.933Z,100695.09
2022-11-01T08:20:30.066Z,100700.25
2022-11-01T08:22:57.138Z,100703.81
2022-11-01T08:25:24.334Z,100704.06
2022-11-01T08:27:51.396Z,100712.00
2022-11-01T08:30:20.253Z,100717.97
2022-11-01T08:32:47.323Z,100716.00
2022-11-01T08:35:14.173Z,100715.19
2022-11-01T08:37:51.484Z,100716.81
2022-11-01T08:40:19.062Z,100724.34
2022-11-01T08:42:45.780Z,100727.84
2022-11-01T08:45:12.664Z,100725.16
2022-11-01T08:47:43.154Z,100727.88
2022-11-01T08:50:13.766Z,100738.19
2022-11-01T08:52:42.727Z,100739.81
2022-11-01T08:55:11.646Z,100740.38
2022-11-01T08:57:39.356Z,100745.50
2022-11-01T09:00:11.415Z,100746.88
2022-11-01T09:02:39.060Z,100746.91
2022-11-01T09:05:09.398Z,100751.19
2022-11-01T09:07:36.986Z,100756.03
2022-11-01T09:10:04.718Z,100759.88
2022-11-01T09:12:31.555Z,100766.91
2022-11-01T09:14:58.397Z,100763.06
2022-11-01T09:17:25.027Z,100760.41
2022-11-01T09:19:51.740Z,100773.63
2022-11-01T09:22:18.484Z,100766.44
2022-11-01T09:24:45.394Z,100769.72
2022-11-01T09:27:12.554Z,100767.25
2022-11-01T09:29:39.448Z,100774.31
2022-11-01T09:32:09.654Z,100777.56
2022-11-01T09:34:36.349Z,100779.25
2022-11-01T09:37:03.076Z,100780.09
2022-11-01T09:39:29.785Z,100773.34
2022-11-01T09:42:13.199Z,100781.19
2022-11-01T09:44:46.209Z,100796.38
2022-11-01T09:47:18.903Z,100801.28
2022-11-01T09:49:48.852Z,100806.69
2022-11-01T09:52:24.569Z,100815.69
2022-11-01T09:54:51.768Z,100826.47
2022-11-01T09:57:40.646Z,100826.22
2022-11-01T10:00:15.097Z,100832.22
2022-11-01T10:02:48.403Z,100832.72
2022-11-01T10:05:46.988Z,100843.31
2022-11-01T10:08:53.108Z,100837.88
2022-11-01T10:12:01.667Z,100838.09
2022-11-01T10:14:51.257Z,100846.00
2022-11-01T10:17:49.415Z,100838.19
2022-11-01T10:20:23.043Z,100851.81
2022-11-01T10:22:50.750Z,100849.34
2022-11-01T10:25:27.444Z,100852.34
2022-11-01T10:28:21.626Z,100861.84
2022-11-01T10:30:54.373Z,100864.06
2022-11-01T10:33:46.550Z,100861.06
2022-11-01T10:36:22.770Z,100868.66
2022-11-01T10:39:53.184Z,100860.50
2022-11-01T10:42:09.063Z,100869.44
2022-11-01T10:44:42.569Z,100861.88
2022-11-01T10:47:16.246Z,100849.44
2022-11-01T10:50:06.586Z,100859.72
2022-11-01T10:52:59.344Z,100858.09
2022-11-01T10:55:32.945Z,100864.03
2022-11-01T10:58:19.585Z,100852.91
2022-11-01T11:00:47.140Z,100865.91
2022-11-01T11:03:21.873Z,100857.50
2022-11-01T11:05:52.135Z,100853.66
2022-11-01T11:08:24.607Z,100851.19
2022-11-01T11:10:53.178Z,100850.16
2022-11-01T11:13:25.743Z,100852.94
2022-11-01T11:16:01.557Z,100850.75
2022-11-01T11:18:33.885Z,100846.13
2022-11-01T11:21:12.129Z,100857.78
2022-11-01T11:23:46.073Z,100844.75
2022-11-01T11:26:16.750Z,100853.47
2022-11-01T11:28:48.762Z,100857.78
2022-11-01T11:31:22.925Z,100853.22
2022-11-01T11:34:22.326Z,100859.72
2022-11-01T11:36:49.942Z,100855.66
2022-11-01T11:39:28.756Z,100843.13
2022-11-01T11:42:15.775Z,100849.13
2022-11-01T11:44:45.849Z,100845.06
2022-11-01T11:47:21.409Z,100848.56
2022-11-01T11:49:50.154Z,100848.06
2022-11-01T11:52:20.070Z,100858.13
2022-11-01T11:54:47.684Z,100858.91
2022-11-01T11:57:24.844Z,100855.94
2022-11-01T11:59:55.139Z,100854.56
2022-11-01T12:02:27.612Z,100858.06
2022-11-01T12:05:04.236Z,100858.09
2022-11-01T12:07:37.686Z,100863.78
2022-11-01T12:10:07.357Z,100858.31
2022-11-01T12:12:40.536Z,100856.38
2022-11-01T12:15:30.070Z,100854.50
2022-11-01T12:18:11.432Z,100857.75
2022-11-01T12:20:41.474Z,100853.38
2022-11-01T12:23:20.810Z,100844.97
2022-11-01T12:25:50.168Z,100853.94
2022-11-01T12:28:53.639Z,100852.59
2022-11-01T12:31:22.185Z,100844.16
2022-11-01T12:33:56.219Z,100837.09
2022-11-01T12:36:30.538Z,100828.44
2022-11-01T12:39:12.839Z,100836.63
2022-11-01T12:41:52.800Z,100840.69
2022-11-01T12:44:36.901Z,100833.63
2022-11-01T12:47:10.780Z,100826.84
2022-11-01T12:49:55.683Z,100829.56
2022-11-01T12:52:37.489Z,100840.16
2022-11-01T12:55:41.275Z,100834.47
2022-11-01T12:58:18.992Z,100832.28
2022-11-01T13:01:11.421Z,100836.34
2022-11-01T13:04:04.957Z,100840.13
2022-11-01T13:06:58.163Z,100833.38
2022-11-01T13:09:53.847Z,100834.72
2022-11-01T13:12:42.134Z,100824.94
2022-11-01T13:15:18.261Z,100826.28
2022-11-01T13:18:01.754Z,100831.72
2022-11-01T13:20:47.163Z,100834.97
2022-11-01T13:23:36.356Z,100831.16
2022-11-01T13:26:26.365Z,100834.44
2022-11-01T13:29:28.518Z,100838.22
2022-11-01T13:31:58.970Z,100838.19
2022-11-01T13:34:45.755Z,100840.38
2022-11-01T13:37:29.945Z,100834.13
2022-11-01T13:40:07.857Z,100841.47
2022-11-01T13:42:39.841Z,100836.84
2022-11-01T13:45:12.484Z,100843.06
2022-11-01T13:47:47.884Z,100845.81
2022-11-01T13:50:44.688Z,100841.97
2022-11-01T13:53:22.182Z,100845.50
2022-11-01T13:55:57.355Z,100854.97
2022-11-01T13:58:24.951Z,100860.94
2022-11-01T14:00:55.534Z,100854.72
2022-11-01T14:03:31.492Z,100860.66
2022-11-01T14:06:11.619Z,100863.28
2022-11-01T14:08:49.116Z,100859.81
2022-11-01T14:11:51.455Z,100865.78
2022-11-01T14:14:33.286Z,100868.72
2022-11-01T14:17:15.794Z,100859.28
2022-11-01T14:19:43.527Z,100858.25
2022-11-01T14:22:22.093Z,100863.63
2022-11-01T14:25:16.466Z,100866.09
2022-11-01T14:27:50.403Z,100871.78
2022-11-01T14:30:26.420Z,100869.25
2022-11-01T14:32:59.547Z,100872.25
2022-11-01T14:35:29.431Z,100864.50
2022-11-01T14:38:02.848Z,100871.06
2022-11-01T14:40:50.218Z,100869.22
2022-11-01T14:43:33.201Z,100864.31
2022-11-01T14:46:08.822Z,100863.94
2022-11-01T14:48:47.879Z,100863.81
2022-11-01T14:51:14.519Z,100865.81
2022-11-01T14:53:42.352Z,100872.13
2022-11-01T14:56:20.139Z,100867.50
2022-11-01T14:58:48.861Z,100869.97
2022-11-01T15:01:18.818Z,100874.06
2022-11-01T15:04:00.044Z,100872.16
2022-11-01T15:06:32.535Z,100869.47
2022-11-01T15:09:04.164Z,100867.31
2022-11-01T15:11:34.432Z,100875.22
2022-11-01T15:14:07.415Z,100878.19
2022-11-01T15:16:35.946Z,100877.38
2022-11-01T15:19:14.844Z,100869.75
2022-11-01T15:21:47.266Z,100869.75
2022-11-01T15:24:20.295Z,100870.84
2022-11-01T15:26:47.187Z,100876.81
2022-11-01T15:29:18.157Z,100871.94
2022-11-01T15:31:50.694Z,100874.94
2022-11-01T15:34:29.817Z,100875.47
2022-11-01T15:36:56.801Z,100878.72
2022-11-01T15:39:26.022Z,100881.19
2022-11-01T15:41:55.136Z,100883.34
2022-11-01T15:44:30.621Z,100879.25
2022-11-01T15:47:00.480Z,100883.84
2022-11-01T15:49:32.588Z,100881.91
2022-11-01T15:52:05.573Z,100888.66
2022-11-01T15:54:41.937Z,100894.38
2022-11-01T15:57:21.129Z,100888.16
2022-11-01T15:59:52.010Z,100888.66
2022-11-01T16:02:45.340Z,100894.03
2022-11-01T16:05:16.358Z,100889.16
2022-11-01T16:07:47.093Z,100889.91
2022-11-01T16:10:21.678Z,100892.13
2022-11-01T16:12:49.792Z,100893.72
2022-11-01T16:15:31.423Z,100902.44
2022-11-01T16:18:00.300Z,100899.16
2022-11-01T16:20:43.138Z,100906.50
2022-11-01T16:23:25.371Z,100916.00
2022-11-01T16:26:04.494Z,100910.28
2022-11-01T16:28:39.515Z,100918.66
2022-11-01T16:31:23.591Z,100917.56
2022-11-01T16:33:50.330Z,100920.28
2022-11-01T16:36:20.125Z,100929.16
2022-11-01T16:38:54.040Z,100928.06
2022-11-01T16:41:40.934Z,100932.38
2022-11-01T16:44:18.647Z,100934.91
2022-11-01T16:46:46.771Z,100940.06
2022-11-01T16:49:23.222Z,100939.97
2022-11-01T16:51:51.297Z,100947.63
2022-11-01T16:54:18.069Z,100948.97
2022-11-01T16:56:51.408Z,100947.84
2022-11-01T16:59:27.041Z,100960.50
2022-11-01T17:01:58.354Z,100964.75
2022-11-01T17:04:29.756Z,100961.56
2022-11-01T17:06:59.730Z,100969.44
2022-11-01T17:09:30.837Z,100970.25
2022-11-01T17:11:57.460Z,100962.38
2022-11-01T17:14:24.127Z,100964.00
2022-11-01T17:16:52.648Z,100960.13
2022-11-01T17:19:24.456Z,100966.41
2022-11-01T17:21:52.287Z,100958.72
2022-11-01T17:24:22.305Z,100961.00
2022-11-01T17:26:50.181Z,100961.34
2022-11-01T17:29:16.824Z,100969.59
2022-11-01T17:31:43.467Z,100970.69
2022-11-01T17:34:10.172Z,100971.50
2022-11-01T17:36:40.230Z,100979.22
2022-11-01T17:39:10.210Z,100983.91
2022-11-01T17:41:37.158Z,100984.41
2022-11-01T17:44:03.894Z,100989.31
2022-11-01T17:46:30.534Z,100996.03
2022-11-01T17:48:57.115Z,100994.44
2022-11-01T17:51:23.782Z,100991.59
2022-11-01T17:53:57.261Z,100994.56
2022-11-01T17:56:24.659Z,100990.22
2022-11-01T17:58:53.477Z,100991.13
2022-11-01T18:01:21.037Z,100989.66
2022-11-01T18:03:47.881Z,100988.34
2022-11-01T18:06:14.835Z,100985.81
2022-11-01T18:08:47.113Z,100973.31
2022-11-01T18:11:32.510Z,100993.31
2022-11-01T18:14:03.993Z,101002.00
2022-11-01T18:16:49.344Z,101007.94
2022-11-01T18:19:15.979Z,101014.13
2022-11-01T18:22:04.604Z,101011.75
2022-11-01T18:24:53.492Z,101012.00
2022-11-01T18:27:27.972Z,101014.56
2022-11-01T18:29:54.710Z,101006.13
2022-11-01T18:32:35.822Z,101005.56
2022-11-01T18:35:38.319Z,100999.78
2022-11-01T18:38:17.967Z,101000.94
2022-11-01T18:41:01.637Z,101002.22
2022-11-01T18:43:32.230Z,101001.03
2022-11-01T18:48:46.223Z,101000.16
2022-11-01T18:51:28.309Z,101003.56
2022-11-01T18:54:19.874Z,101005.19
2022-11-01T18:56:53.575Z,100993.88
2022-11-01T18:59:27.125Z,100996.69
2022-11-01T19:01:59.238Z,101005.09
2022-11-01T19:04:29.931Z,101002.44
2022-11-01T19:07:06.005Z,101003.09
2022-11-01T19:09:39.495Z,100998.63
2022-11-01T19:12:27.813Z,101001.78
2022-11-01T19:15:05.495Z,100996.69
2022-11-01T19:17:40.432Z,101008.72
2022-11-01T19:20:23.078Z,101005.00
2022-11-01T19:22:49.993Z,100998.53
2022-11-01T19:25:22.681Z,101003.06
2022-11-01T19:27:52.841Z,101003.72
2022-11-01T19:30:24.641Z,100999.13
2022-11-01T19:32:53.710Z,101007.50
2022-11-01T19:35:22.761Z,101005.22
2022-11-01T19:37:56.233Z,101001.06
2022-11-01T19:40:36.003Z,101001.63
2022-11-01T19:43:15.678Z,100995.81
2022-11-01T19:46:05.036Z,100994.94
2022-11-01T19:48:34.905Z,100997.25
2022-11-01T19:51:01.664Z,101000.78
2022-11-01T19:53:40.056Z,101004.03
2022-11-01T19:56:10.381Z,101000.25
2022-11-01T19:58:53.908Z,101006.88
2022-11-01T20:01:33.096Z,101010.59
2022-11-01T20:04:11.050Z,101000.16
2022-11-01T20:06:47.089Z,101009.72
2022-11-01T20:09:23.804Z,100996.78
2022-11-01T20:11:53.238Z,101001.13
2022-11-01T20:14:20.825Z,101014.13
2022-11-01T20:16:49.906Z,101009.06
2022-11-01T20:19:20.715Z,101024.13
2022-11-01T20:21:51.404Z,101025.13
2022-11-01T20:24:19.528Z,101021.19
2022-11-01T20:26:47.628Z,101030.84
2022-11-01T20:29:15.555Z,101029.94
2022-11-01T20:31:43.533Z,101043.84
2022-11-01T20:34:14.114Z,101035.50
2022-11-01T20:36:41.034Z,101043.03
2022-11-01T20:39:13.172Z,101045.72
2022-11-01T20:41:44.082Z,101046.28
2022-11-01T20:44:12.261Z,101045.09
2022-11-01T20:46:39.119Z,101050.50
2022-11-01T20:49:10.764Z,101063.81
2022-11-01T20:51:41.516Z,101050.53
2022-11-01T20:54:13.895Z,101057.38
2022-11-01T20:56:53.580Z,101056.09
2022-11-01T20:59:21.517Z,101057.53
2022-11-01T21:01:49.195Z,101056.88
2022-11-01T21:04:17.408Z,101061.25
2022-11-01T21:06:45.638Z,101068.25
2022-11-01T21:09:37.627Z,101067.19
2022-11-01T21:12:40.054Z,101060.22
2022-11-01T21:15:27.380Z,101064.13
2022-11-01T21:18:01.649Z,101057.34
2022-11-01T21:20:29.382Z,101064.19
2022-11-01T21:23:01.947Z,101064.88
2022-11-01T21:25:29.174Z,101057.56
2022-11-01T21:27:56.200Z,101066.31
2022-11-01T21:30:23.019Z,101065.81
2022-11-01T21:32:51.224Z,101067.72
2022-11-01T21:35:20.928Z,101077.22
2022-11-01T21:37:50.228Z,101073.22
2022-11-01T21:40:28.915Z,101070.38
2022-11-01T21:42:57.409Z,101071.88
2022-11-01T21:45:33.452Z,101079.25
2022-11-01T21:48:18.740Z,101083.78
2022-11-01T21:50:45.379Z,101077.63
2022-11-01T21:53:12.196Z,101074.09
2022-11-01T21:55:38.821Z,101076.56
2022-11-01T21:58:05.451Z,101074.59
2022-11-01T22:00:32.073Z,101081.09
2022-11-01T22:02:58.691Z,101081.13
2022-11-01T22:05:25.301Z,101079.06
2022-11-01T22:07:51.930Z,101076.75
2022-11-01T22:10:18.563Z,101080.75
2022-11-01T22:12:45.461Z,101077.06
2022-11-01T22:15:12.112Z,101069.06
2022-11-01T22:17:39.905Z,101070.69
2022-11-01T22:20:06.824Z,101067.31
2022-11-01T22:22:33.412Z,101072.31
2022-11-01T22:25:00.039Z,101075.38
2022-11-01T22:27:26.614Z,101066.34
2022-11-01T22:29:53.178Z,101073.81
2022-11-01T22:32:19.749Z,101075.78
2022-11-01T22:34:46.390Z,101066.50
2022-11-01T22:37:13.365Z,101078.16
2022-11-01T22:39:40.947Z,101084.53
2022-11-01T22:42:13.101Z,101089.44
2022-11-01T22:44:40.696Z,101075.66
2022-11-01T22:47:24.908Z,101075.63
2022-11-01T22:49:54.001Z,101077.06
2022-11-01T22:52:39.381Z,101074.44
2022-11-01T22:55:12.559Z,101080.78
2022-11-01T22:58:24.252Z,101083.50
2022-11-01T23:00:52.103Z,101088.78
2022-11-01T23:03:41.999Z,101076.34
2022-11-01T23:06:29.018Z,101078.88
2022-11-01T23:09:11.037Z,101085.13
2022-11-01T23:11:57.103Z,101078.78
2022-11-01T23:14:39.054Z,101079.84
2022-11-01T23:17:35.540Z,101081.06
2022-11-01T23:20:03.596Z,101089.75
2022-11-01T23:22:35.800Z,101093.66
2022-11-01T23:25:04.710Z,101086.50
2022-11-01T23:27:31.817Z,101086.56
2022-11-01T23:30:01.408Z,101085.06
2022-11-01T23:32:34.380Z,101082.00
2022-11-01T23:35:19.241Z,101081.00
2022-11-01T23:37:46.668Z,101075.88
2022-11-01T23:40:16.233Z,101079.75
2022-11-01T23:42:44.148Z,101071.75
2022-11-01T23:45:34.561Z,101081.16
2022-11-01T23:48:02.302Z,101081.97
2022-11-01T23:50:32.981Z,101075.13
2022-11-01T23:53:12.271Z,101071.63
2022-11-01T23:55:50.361Z,101082.44
